sensor_id;sensor_type;location;lat;lon;timestamp;temperature;humidity
24772;DHT22;12870;52.274;9.754;2023-02-21T00:00:15;9.90;99.90
24772;DHT22;12870;52.274;9.754;2023-02-21T00:02:59;9.90;99.90
24772;DHT22;12870;52.274;9.754;2023-02-21T00:05:43;9.90;99.90
24772;DHT22;12870;52.274;9.754;2023-02-21T00:08:27;9.90;99.90
24772;DHT22;12870;52.274;9.754;2023-02-21T00:11:12;9.90;99.90
24772;DHT22;12870;52.274;9.754;2023-02-21T00:13:56;9.90;99.90
24772;DHT22;12870;52.274;9.754;2023-02-21T00:16:40;10.00;99.90
24772;DHT22;12870;52.274;9.754;2023-02-21T00:19:24;10.00;99.90
24772;DHT22;12870;52.274;9.754;2023-02-21T00:22:08;9.90;99.90
24772;DHT22;12870;52.274;9.754;2023-02-21T00:24:52;9.90;99.90
24772;DHT22;12870;52.274;9.754;2023-02-21T00:27:36;9.90;99.90
24772;DHT22;12870;52.274;9.754;2023-02-21T00:30:20;9.90;99.90
24772;DHT22;12870;52.274;9.754;2023-02-21T00:33:04;9.90;99.90
24772;DHT22;12870;52.274;9.754;2023-02-21T00:35:48;9.80;99.90
24772;DHT22;12870;52.274;9.754;2023-02-21T00:38:32;9.80;99.90
24772;DHT22;12870;52.274;9.754;2023-02-21T00:41:16;9.80;99.90
24772;DHT22;12870;52.274;9.754;2023-02-21T00:44:00;9.70;99.90
24772;DHT22;12870;52.274;9.754;2023-02-21T00:46:44;9.70;99.90
24772;DHT22;12870;52.274;9.754;2023-02-21T00:49:28;9.70;99.90
24772;DHT22;12870;52.274;9.754;2023-02-21T00:52:12;9.60;99.90
24772;DHT22;12870;52.274;9.754;2023-02-21T00:54:56;9.70;99.90
24772;DHT22;12870;52.274;9.754;2023-02-21T00:57:41;9.60;99.90
24772;DHT22;12870;52.274;9.754;2023-02-21T01:00:25;9.60;99.90
24772;DHT22;12870;52.274;9.754;2023-02-21T01:03:09;9.50;99.90
24772;DHT22;12870;52.274;9.754;2023-02-21T01:05:54;9.60;99.90
24772;DHT22;12870;52.274;9.754;2023-02-21T01:08:43;9.60;99.90
24772;DHT22;12870;52.274;9.754;2023-02-21T01:11:28;9.60;99.90
24772;DHT22;12870;52.274;9.754;2023-02-21T01:14:12;9.60;99.90
24772;DHT22;12870;52.274;9.754;2023-02-21T01:16:56;9.60;99.90
24772;DHT22;12870;52.274;9.754;2023-02-21T01:19:41;9.70;99.90
24772;DHT22;12870;52.274;9.754;2023-02-21T01:22:26;9.70;99.90
24772;DHT22;12870;52.274;9.754;2023-02-21T01:25:10;9.80;99.90
24772;DHT22;12870;52.274;9.754;2023-02-21T01:27:54;9.80;99.90
24772;DHT22;12870;52.274;9.754;2023-02-21T01:30:38;9.80;99.90
24772;DHT22;12870;52.274;9.754;2023-02-21T01:33:23;9.80;99.90
24772;DHT22;12870;52.274;9.754;2023-02-21T01:36:07;9.90;99.90
24772;DHT22;12870;52.274;9.754;2023-02-21T01:38:52;9.80;99.90
24772;DHT22;12870;52.274;9.754;2023-02-21T01:41:36;9.80;99.90
24772;DHT22;12870;52.274;9.754;2023-02-21T01:44:33;9.90;99.90
24772;DHT22;12870;52.274;9.754;2023-02-21T01:47:18;9.90;99.90
24772;DHT22;12870;52.274;9.754;2023-02-21T01:50:08;9.90;99.90
24772;DHT22;12870;52.274;9.754;2023-02-21T01:52:54;9.90;99.90
24772;DHT22;12870;52.274;9.754;2023-02-21T01:55:39;9.90;99.90
24772;DHT22;12870;52.274;9.754;2023-02-21T01:58:26;9.90;99.90
24772;DHT22;12870;52.274;9.754;2023-02-21T02:04:18;9.90;99.90
24772;DHT22;12870;52.274;9.754;2023-02-21T02:07:02;9.90;99.90
24772;DHT22;12870;52.274;9.754;2023-02-21T02:09:47;9.90;99.90
24772;DHT22;12870;52.274;9.754;2023-02-21T02:18:43;9.90;99.90
24772;DHT22;12870;52.274;9.754;2023-02-21T02:35:48;10.00;99.90
24772;DHT22;12870;52.274;9.754;2023-02-21T02:43:34;10.00;99.90
24772;DHT22;12870;52.274;9.754;2023-02-21T02:46:18;10.00;99.90
24772;DHT22;12870;52.274;9.754;2023-02-21T02:48:53;10.00;99.90
24772;DHT22;12870;52.274;9.754;2023-02-21T02:51:20;10.10;99.90
24772;DHT22;12870;52.274;9.754;2023-02-21T02:53:46;10.10;99.90
24772;DHT22;12870;52.274;9.754;2023-02-21T02:56:14;10.00;99.90
24772;DHT22;12870;52.274;9.754;2023-02-21T02:59:04;10.00;99.90
24772;DHT22;12870;52.274;9.754;2023-02-21T03:12:18;10.00;99.90
24772;DHT22;12870;52.274;9.754;2023-02-21T03:17:48;10.00;99.90
24772;DHT22;12870;52.274;9.754;2023-02-21T03:20:16;10.00;99.90
24772;DHT22;12870;52.274;9.754;2023-02-21T03:22:44;10.00;99.90
24772;DHT22;12870;52.274;9.754;2023-02-21T03:25:11;9.90;99.90
24772;DHT22;12870;52.274;9.754;2023-02-21T03:27:39;9.90;99.90
24772;DHT22;12870;52.274;9.754;2023-02-21T03:30:07;9.90;99.90
24772;DHT22;12870;52.274;9.754;2023-02-21T03:32:37;9.90;99.90
24772;DHT22;12870;52.274;9.754;2023-02-21T03:35:05;9.80;99.90
24772;DHT22;12870;52.274;9.754;2023-02-21T03:37:41;9.90;99.90
24772;DHT22;12870;52.274;9.754;2023-02-21T03:40:21;9.90;99.90
24772;DHT22;12870;52.274;9.754;2023-02-21T03:42:49;9.80;99.90
24772;DHT22;12870;52.274;9.754;2023-02-21T03:45:15;9.80;99.90
24772;DHT22;12870;52.274;9.754;2023-02-21T03:47:41;9.80;99.90
24772;DHT22;12870;52.274;9.754;2023-02-21T03:50:07;9.80;99.90
24772;DHT22;12870;52.274;9.754;2023-02-21T03:52:32;9.80;99.90
24772;DHT22;12870;52.274;9.754;2023-02-21T03:54:58;9.80;99.90
24772;DHT22;12870;52.274;9.754;2023-02-21T03:57:24;9.80;99.90
24772;DHT22;12870;52.274;9.754;2023-02-21T03:59:50;9.90;99.90
24772;DHT22;12870;52.274;9.754;2023-02-21T04:02:15;9.90;99.90
24772;DHT22;12870;52.274;9.754;2023-02-21T04:04:41;9.90;99.90
24772;DHT22;12870;52.274;9.754;2023-02-21T04:07:07;9.90;99.90
24772;DHT22;12870;52.274;9.754;2023-02-21T04:09:34;9.90;99.90
24772;DHT22;12870;52.274;9.754;2023-02-21T04:11:59;10.00;99.90
24772;DHT22;12870;52.274;9.754;2023-02-21T04:14:25;10.00;99.90
24772;DHT22;12870;52.274;9.754;2023-02-21T04:16:51;10.00;99.90
24772;DHT22;12870;52.274;9.754;2023-02-21T04:19:17;10.00;99.90
24772;DHT22;12870;52.274;9.754;2023-02-21T04:21:42;10.00;99.90
24772;DHT22;12870;52.274;9.754;2023-02-21T04:24:08;10.00;99.90
24772;DHT22;12870;52.274;9.754;2023-02-21T04:26:34;10.00;99.90
24772;DHT22;12870;52.274;9.754;2023-02-21T04:29:00;10.00;99.90
24772;DHT22;12870;52.274;9.754;2023-02-21T04:31:26;10.00;99.90
24772;DHT22;12870;52.274;9.754;2023-02-21T04:33:52;10.10;99.90
24772;DHT22;12870;52.274;9.754;2023-02-21T04:36:18;10.00;99.90
24772;DHT22;12870;52.274;9.754;2023-02-21T04:38:43;10.00;99.90
24772;DHT22;12870;52.274;9.754;2023-02-21T04:41:09;10.00;99.90
24772;DHT22;12870;52.274;9.754;2023-02-21T04:43:35;10.00;99.90
24772;DHT22;12870;52.274;9.754;2023-02-21T04:46:01;10.00;99.90
24772;DHT22;12870;52.274;9.754;2023-02-21T04:48:26;10.00;99.90
24772;DHT22;12870;52.274;9.754;2023-02-21T04:50:52;10.00;99.90
24772;DHT22;12870;52.274;9.754;2023-02-21T04:53:18;10.00;99.90
24772;DHT22;12870;52.274;9.754;2023-02-21T04:55:44;10.00;99.90
24772;DHT22;12870;52.274;9.754;2023-02-21T04:58:10;10.00;99.90
24772;DHT22;12870;52.274;9.754;2023-02-21T05:00:35;9.90;99.90
24772;DHT22;12870;52.274;9.754;2023-02-21T05:03:01;10.00;99.90
24772;DHT22;12870;52.274;9.754;2023-02-21T05:05:27;10.10;99.90
24772;DHT22;12870;52.274;9.754;2023-02-21T05:07:53;10.10;99.90
24772;DHT22;12870;52.274;9.754;2023-02-21T05:10:19;10.10;99.90
24772;DHT22;12870;52.274;9.754;2023-02-21T05:12:44;10.00;99.90
24772;DHT22;12870;52.274;9.754;2023-02-21T05:15:12;10.00;99.90
24772;DHT22;12870;52.274;9.754;2023-02-21T05:17:38;10.00;99.90
24772;DHT22;12870;52.274;9.754;2023-02-21T05:20:05;10.00;99.90
24772;DHT22;12870;52.274;9.754;2023-02-21T05:22:39;10.10;99.90
24772;DHT22;12870;52.274;9.754;2023-02-21T05:25:23;10.10;99.90
24772;DHT22;12870;52.274;9.754;2023-02-21T05:27:51;10.00;99.90
24772;DHT22;12870;52.274;9.754;2023-02-21T05:30:20;10.00;99.90
24772;DHT22;12870;52.274;9.754;2023-02-21T05:32:47;10.00;99.90
24772;DHT22;12870;52.274;9.754;2023-02-21T05:35:14;9.90;99.90
24772;DHT22;12870;52.274;9.754;2023-02-21T05:37:40;9.90;99.90
24772;DHT22;12870;52.274;9.754;2023-02-21T05:40:06;10.00;99.90
24772;DHT22;12870;52.274;9.754;2023-02-21T05:42:32;10.00;99.90
24772;DHT22;12870;52.274;9.754;2023-02-21T05:44:58;9.90;99.90
24772;DHT22;12870;52.274;9.754;2023-02-21T05:47:24;9.90;99.90
24772;DHT22;12870;52.274;9.754;2023-02-21T05:49:50;9.90;99.90
24772;DHT22;12870;52.274;9.754;2023-02-21T05:52:16;10.00;99.90
24772;DHT22;12870;52.274;9.754;2023-02-21T05:54:43;10.00;99.90
24772;DHT22;12870;52.274;9.754;2023-02-21T05:57:09;9.90;99.90
24772;DHT22;12870;52.274;9.754;2023-02-21T05:59:35;9.90;99.90
24772;DHT22;12870;52.274;9.754;2023-02-21T06:02:01;10.00;99.90
24772;DHT22;12870;52.274;9.754;2023-02-21T06:04:27;9.90;99.90
24772;DHT22;12870;52.274;9.754;2023-02-21T06:06:53;9.90;99.90
24772;DHT22;12870;52.274;9.754;2023-02-21T06:09:19;9.90;99.90
24772;DHT22;12870;52.274;9.754;2023-02-21T06:11:45;9.90;99.90
24772;DHT22;12870;52.274;9.754;2023-02-21T06:14:19;10.00;99.90
24772;DHT22;12870;52.274;9.754;2023-02-21T06:16:45;10.00;99.90
24772;DHT22;12870;52.274;9.754;2023-02-21T06:19:12;10.00;99.90
24772;DHT22;12870;52.274;9.754;2023-02-21T06:21:39;9.90;99.90
24772;DHT22;12870;52.274;9.754;2023-02-21T06:24:07;9.90;99.90
24772;DHT22;12870;52.274;9.754;2023-02-21T06:26:33;9.90;99.90
24772;DHT22;12870;52.274;9.754;2023-02-21T06:28:59;9.90;99.90
24772;DHT22;12870;52.274;9.754;2023-02-21T06:31:25;9.90;99.90
24772;DHT22;12870;52.274;9.754;2023-02-21T06:33:50;10.00;99.90
24772;DHT22;12870;52.274;9.754;2023-02-21T06:36:19;9.90;99.90
24772;DHT22;12870;52.274;9.754;2023-02-21T06:38:48;9.90;99.90
24772;DHT22;12870;52.274;9.754;2023-02-21T06:41:17;9.90;99.90
24772;DHT22;12870;52.274;9.754;2023-02-21T06:43:43;9.90;99.90
24772;DHT22;12870;52.274;9.754;2023-02-21T06:46:09;10.00;99.90
24772;DHT22;12870;52.274;9.754;2023-02-21T06:48:35;9.90;99.90
24772;DHT22;12870;52.274;9.754;2023-02-21T06:51:00;10.00;99.90
24772;DHT22;12870;52.274;9.754;2023-02-21T06:53:26;10.00;99.90
24772;DHT22;12870;52.274;9.754;2023-02-21T06:55:52;10.00;99.90
24772;DHT22;12870;52.274;9.754;2023-02-21T06:58:17;9.90;99.90
24772;DHT22;12870;52.274;9.754;2023-02-21T07:00:43;10.00;99.90
24772;DHT22;12870;52.274;9.754;2023-02-21T07:03:09;10.00;99.90
24772;DHT22;12870;52.274;9.754;2023-02-21T07:05:34;10.00;99.90
24772;DHT22;12870;52.274;9.754;2023-02-21T07:08:03;10.00;99.90
24772;DHT22;12870;52.274;9.754;2023-02-21T07:10:29;10.00;99.90
24772;DHT22;12870;52.274;9.754;2023-02-21T07:12:55;10.00;99.90
24772;DHT22;12870;52.274;9.754;2023-02-21T07:15:21;10.00;99.90
24772;DHT22;12870;52.274;9.754;2023-02-21T07:17:47;10.00;99.90
24772;DHT22;12870;52.274;9.754;2023-02-21T07:20:13;10.00;99.90
24772;DHT22;12870;52.274;9.754;2023-02-21T07:22:38;10.00;99.90
24772;DHT22;12870;52.274;9.754;2023-02-21T07:25:04;10.10;99.90
24772;DHT22;12870;52.274;9.754;2023-02-21T07:27:30;10.10;99.90
24772;DHT22;12870;52.274;9.754;2023-02-21T07:29:56;10.00;99.90
24772;DHT22;12870;52.274;9.754;2023-02-21T07:32:21;10.00;99.90
24772;DHT22;12870;52.274;9.754;2023-02-21T07:34:47;10.00;99.90
24772;DHT22;12870;52.274;9.754;2023-02-21T07:37:14;10.00;99.90
24772;DHT22;12870;52.274;9.754;2023-02-21T07:39:40;10.00;99.90
24772;DHT22;12870;52.274;9.754;2023-02-21T07:42:06;10.10;99.90
24772;DHT22;12870;52.274;9.754;2023-02-21T07:44:34;10.00;99.90
24772;DHT22;12870;52.274;9.754;2023-02-21T07:47:00;10.00;99.90
24772;DHT22;12870;52.274;9.754;2023-02-21T07:49:25;10.00;99.90
24772;DHT22;12870;52.274;9.754;2023-02-21T07:51:51;10.00;99.90
24772;DHT22;12870;52.274;9.754;2023-02-21T07:54:17;10.00;99.90
24772;DHT22;12870;52.274;9.754;2023-02-21T07:56:45;10.00;99.90
24772;DHT22;12870;52.274;9.754;2023-02-21T07:59:11;10.00;99.90
24772;DHT22;12870;52.274;9.754;2023-02-21T08:01:37;10.00;99.90
24772;DHT22;12870;52.274;9.754;2023-02-21T08:04:03;10.00;99.90
24772;DHT22;12870;52.274;9.754;2023-02-21T08:06:29;10.00;99.90
24772;DHT22;12870;52.274;9.754;2023-02-21T08:08:55;10.00;99.90
24772;DHT22;12870;52.274;9.754;2023-02-21T08:11:21;10.10;99.90
24772;DHT22;12870;52.274;9.754;2023-02-21T08:13:47;10.00;99.90
24772;DHT22;12870;52.274;9.754;2023-02-21T08:16:12;10.10;99.90
24772;DHT22;12870;52.274;9.754;2023-02-21T08:18:38;10.00;99.90
24772;DHT22;12870;52.274;9.754;2023-02-21T08:21:08;10.00;99.90
24772;DHT22;12870;52.274;9.754;2023-02-21T08:23:34;10.10;99.90
24772;DHT22;12870;52.274;9.754;2023-02-21T08:25:59;10.10;99.90
24772;DHT22;12870;52.274;9.754;2023-02-21T08:28:26;10.10;99.90
24772;DHT22;12870;52.274;9.754;2023-02-21T08:30:52;10.10;99.90
24772;DHT22;12870;52.274;9.754;2023-02-21T08:33:18;10.10;99.90
24772;DHT22;12870;52.274;9.754;2023-02-21T08:35:43;10.10;99.90
24772;DHT22;12870;52.274;9.754;2023-02-21T08:38:09;10.10;99.90
24772;DHT22;12870;52.274;9.754;2023-02-21T08:40:35;10.20;99.90
24772;DHT22;12870;52.274;9.754;2023-02-21T08:43:01;10.20;99.90
24772;DHT22;12870;52.274;9.754;2023-02-21T08:45:27;10.10;99.90
24772;DHT22;12870;52.274;9.754;2023-02-21T08:47:54;10.10;99.90
24772;DHT22;12870;52.274;9.754;2023-02-21T08:50:22;10.10;99.90
24772;DHT22;12870;52.274;9.754;2023-02-21T08:52:49;10.20;99.90
24772;DHT22;12870;52.274;9.754;2023-02-21T08:55:15;10.20;99.90
24772;DHT22;12870;52.274;9.754;2023-02-21T08:57:41;10.30;99.90
24772;DHT22;12870;52.274;9.754;2023-02-21T09:00:08;10.30;99.90
24772;DHT22;12870;52.274;9.754;2023-02-21T09:02:35;10.30;99.90
24772;DHT22;12870;52.274;9.754;2023-02-21T09:05:09;10.30;99.90
24772;DHT22;12870;52.274;9.754;2023-02-21T09:07:35;10.30;99.90
24772;DHT22;12870;52.274;9.754;2023-02-21T09:10:02;10.30;99.90
24772;DHT22;12870;52.274;9.754;2023-02-21T09:12:27;10.40;99.90
24772;DHT22;12870;52.274;9.754;2023-02-21T09:14:53;10.30;99.90
24772;DHT22;12870;52.274;9.754;2023-02-21T09:17:19;10.30;99.90
24772;DHT22;12870;52.274;9.754;2023-02-21T09:19:44;10.40;99.90
24772;DHT22;12870;52.274;9.754;2023-02-21T09:22:10;10.40;99.90
24772;DHT22;12870;52.274;9.754;2023-02-21T09:24:36;10.40;99.90
24772;DHT22;12870;52.274;9.754;2023-02-21T09:27:02;10.50;99.90
24772;DHT22;12870;52.274;9.754;2023-02-21T09:29:29;10.50;99.90
24772;DHT22;12870;52.274;9.754;2023-02-21T09:31:55;10.50;99.90
24772;DHT22;12870;52.274;9.754;2023-02-21T09:34:21;10.50;99.90
24772;DHT22;12870;52.274;9.754;2023-02-21T09:36:48;10.50;99.90
24772;DHT22;12870;52.274;9.754;2023-02-21T09:39:15;10.50;99.90
24772;DHT22;12870;52.274;9.754;2023-02-21T09:41:41;10.40;99.90
24772;DHT22;12870;52.274;9.754;2023-02-21T09:44:22;10.40;99.90
24772;DHT22;12870;52.274;9.754;2023-02-21T09:47:02;10.40;99.90
24772;DHT22;12870;52.274;9.754;2023-02-21T09:49:34;10.40;99.90
24772;DHT22;12870;52.274;9.754;2023-02-21T09:52:02;10.40;99.90
24772;DHT22;12870;52.274;9.754;2023-02-21T09:54:43;10.50;99.90
24772;DHT22;12870;52.274;9.754;2023-02-21T09:57:13;10.50;99.90
24772;DHT22;12870;52.274;9.754;2023-02-21T09:59:40;10.60;99.90
24772;DHT22;12870;52.274;9.754;2023-02-21T10:07:59;10.60;99.90
24772;DHT22;12870;52.274;9.754;2023-02-21T10:10:44;10.60;99.90
24772;DHT22;12870;52.274;9.754;2023-02-21T10:13:38;10.70;99.90
24772;DHT22;12870;52.274;9.754;2023-02-21T10:16:25;10.80;99.90
24772;DHT22;12870;52.274;9.754;2023-02-21T10:21:40;10.70;99.90
24772;DHT22;12870;52.274;9.754;2023-02-21T10:24:16;10.70;99.90
24772;DHT22;12870;52.274;9.754;2023-02-21T10:27:04;10.70;99.90
24772;DHT22;12870;52.274;9.754;2023-02-21T10:32:14;10.80;99.90
24772;DHT22;12870;52.274;9.754;2023-02-21T10:34:39;10.90;99.90
24772;DHT22;12870;52.274;9.754;2023-02-21T10:37:30;10.80;99.90
24772;DHT22;12870;52.274;9.754;2023-02-21T10:43:42;10.80;99.90
24772;DHT22;12870;52.274;9.754;2023-02-21T10:45:52;11.00;99.90
24772;DHT22;12870;52.274;9.754;2023-02-21T10:48:20;10.90;99.90
24772;DHT22;12870;52.274;9.754;2023-02-21T10:50:51;11.10;99.90
24772;DHT22;12870;52.274;9.754;2023-02-21T10:53:34;11.00;99.90
24772;DHT22;12870;52.274;9.754;2023-02-21T11:01:35;11.30;99.90
24772;DHT22;12870;52.274;9.754;2023-02-21T11:04:21;11.40;99.90
24772;DHT22;12870;52.274;9.754;2023-02-21T11:07:08;11.30;99.90
24772;DHT22;12870;52.274;9.754;2023-02-21T11:09:45;11.20;99.90
24772;DHT22;12870;52.274;9.754;2023-02-21T11:12:24;11.20;99.90
24772;DHT22;12870;52.274;9.754;2023-02-21T11:22:23;11.50;99.90
24772;DHT22;12870;52.274;9.754;2023-02-21T11:27:36;11.60;99.90
24772;DHT22;12870;52.274;9.754;2023-02-21T11:30:22;11.40;99.90
24772;DHT22;12870;52.274;9.754;2023-02-21T11:32:51;11.30;99.90
24772;DHT22;12870;52.274;9.754;2023-02-21T11:38:03;11.40;99.90
24772;DHT22;12870;52.274;9.754;2023-02-21T11:40:33;11.30;99.90
24772;DHT22;12870;52.274;9.754;2023-02-21T11:43:28;11.40;99.90
24772;DHT22;12870;52.274;9.754;2023-02-21T11:46:04;11.50;99.90
24772;DHT22;12870;52.274;9.754;2023-02-21T11:48:54;11.50;99.90
24772;DHT22;12870;52.274;9.754;2023-02-21T11:51:36;11.50;99.90
24772;DHT22;12870;52.274;9.754;2023-02-21T11:54:04;11.50;99.90
24772;DHT22;12870;52.274;9.754;2023-02-21T11:56:53;11.50;99.90
24772;DHT22;12870;52.274;9.754;2023-02-21T12:04:46;11.70;99.90
24772;DHT22;12870;52.274;9.754;2023-02-21T12:07:20;11.80;99.90
24772;DHT22;12870;52.274;9.754;2023-02-21T12:15:28;11.80;99.90
24772;DHT22;12870;52.274;9.754;2023-02-21T12:21:10;12.40;99.90
24772;DHT22;12870;52.274;9.754;2023-02-21T12:23:49;12.40;99.90
24772;DHT22;12870;52.274;9.754;2023-02-21T12:26:50;12.40;99.90
24772;DHT22;12870;52.274;9.754;2023-02-21T12:46:39;11.90;99.90
24772;DHT22;12870;52.274;9.754;2023-02-21T13:00:26;11.50;99.90
24772;DHT22;12870;52.274;9.754;2023-02-21T13:03:02;11.60;99.90
24772;DHT22;12870;52.274;9.754;2023-02-21T13:05:35;12.20;99.90
24772;DHT22;12870;52.274;9.754;2023-02-21T13:11:13;12.50;99.90
24772;DHT22;12870;52.274;9.754;2023-02-21T13:13:41;12.70;99.90
24772;DHT22;12870;52.274;9.754;2023-02-21T13:16:08;12.60;99.90
24772;DHT22;12870;52.274;9.754;2023-02-21T13:19:01;12.70;99.90
24772;DHT22;12870;52.274;9.754;2023-02-21T13:24:56;12.60;99.90
24772;DHT22;12870;52.274;9.754;2023-02-21T13:30:38;12.80;99.90
24772;DHT22;12870;52.274;9.754;2023-02-21T13:33:04;13.30;99.90
24772;DHT22;12870;52.274;9.754;2023-02-21T13:35:36;13.40;99.90
24772;DHT22;12870;52.274;9.754;2023-02-21T13:38:08;13.30;99.90
24772;DHT22;12870;52.274;9.754;2023-02-21T13:40:50;13.20;99.90
24772;DHT22;12870;52.274;9.754;2023-02-21T13:43:26;13.00;99.90
24772;DHT22;12870;52.274;9.754;2023-02-21T13:45:54;12.90;99.90
24772;DHT22;12870;52.274;9.754;2023-02-21T13:48:23;12.60;99.90
24772;DHT22;12870;52.274;9.754;2023-02-21T13:50:54;12.40;99.90
24772;DHT22;12870;52.274;9.754;2023-02-21T13:53:26;12.30;99.90
24772;DHT22;12870;52.274;9.754;2023-02-21T13:58:39;12.00;99.90
24772;DHT22;12870;52.274;9.754;2023-02-21T14:03:53;11.80;99.90
24772;DHT22;12870;52.274;9.754;2023-02-21T14:06:25;11.70;99.90
24772;DHT22;12870;52.274;9.754;2023-02-21T14:08:57;11.70;99.90
24772;DHT22;12870;52.274;9.754;2023-02-21T14:11:28;11.60;99.90
24772;DHT22;12870;52.274;9.754;2023-02-21T14:17:02;11.50;99.90
24772;DHT22;12870;52.274;9.754;2023-02-21T14:19:43;11.50;99.90
24772;DHT22;12870;52.274;9.754;2023-02-21T14:22:14;11.50;99.90
24772;DHT22;12870;52.274;9.754;2023-02-21T14:24:44;11.60;99.90
24772;DHT22;12870;52.274;9.754;2023-02-21T14:32:26;11.60;99.90
24772;DHT22;12870;52.274;9.754;2023-02-21T14:34:55;11.30;99.90
24772;DHT22;12870;52.274;9.754;2023-02-21T14:46:15;11.50;99.90
24772;DHT22;12870;52.274;9.754;2023-02-21T14:54:42;11.40;99.90
24772;DHT22;12870;52.274;9.754;2023-02-21T15:05:58;11.50;99.90
24772;DHT22;12870;52.274;9.754;2023-02-21T15:08:26;11.50;99.90
24772;DHT22;12870;52.274;9.754;2023-02-21T15:10:55;11.50;99.90
24772;DHT22;12870;52.274;9.754;2023-02-21T15:15:56;11.30;99.90
24772;DHT22;12870;52.274;9.754;2023-02-21T15:21:03;11.40;99.90
24772;DHT22;12870;52.274;9.754;2023-02-21T15:23:29;11.30;99.90
24772;DHT22;12870;52.274;9.754;2023-02-21T15:25:58;11.30;99.90
24772;DHT22;12870;52.274;9.754;2023-02-21T15:28:27;11.40;99.90
24772;DHT22;12870;52.274;9.754;2023-02-21T15:31:07;11.50;99.90
24772;DHT22;12870;52.274;9.754;2023-02-21T15:33:35;11.40;99.90
24772;DHT22;12870;52.274;9.754;2023-02-21T15:41:26;11.30;99.90
24772;DHT22;12870;52.274;9.754;2023-02-21T15:43:58;11.20;99.90
24772;DHT22;12870;52.274;9.754;2023-02-21T15:46:42;11.20;99.90
24772;DHT22;12870;52.274;9.754;2023-02-21T15:49:19;11.10;99.90
24772;DHT22;12870;52.274;9.754;2023-02-21T15:51:45;11.10;99.90
24772;DHT22;12870;52.274;9.754;2023-02-21T15:56:43;11.00;99.90
24772;DHT22;12870;52.274;9.754;2023-02-21T15:59:24;11.00;99.90
24772;DHT22;12870;52.274;9.754;2023-02-21T16:04:38;10.90;99.90
24772;DHT22;12870;52.274;9.754;2023-02-21T16:07:06;10.90;99.90
24772;DHT22;12870;52.274;9.754;2023-02-21T16:09:40;10.90;99.90
24772;DHT22;12870;52.274;9.754;2023-02-21T16:14:44;10.90;99.90
24772;DHT22;12870;52.274;9.754;2023-02-21T16:17:33;10.80;99.90
24772;DHT22;12870;52.274;9.754;2023-02-21T16:20:17;10.80;99.90
24772;DHT22;12870;52.274;9.754;2023-02-21T16:22:46;10.90;99.90
24772;DHT22;12870;52.274;9.754;2023-02-21T16:25:17;10.80;99.90
24772;DHT22;12870;52.274;9.754;2023-02-21T16:27:49;10.90;99.90
24772;DHT22;12870;52.274;9.754;2023-02-21T16:30:19;10.80;99.90
24772;DHT22;12870;52.274;9.754;2023-02-21T16:32:47;10.80;99.90
24772;DHT22;12870;52.274;9.754;2023-02-21T16:35:19;10.80;99.90
24772;DHT22;12870;52.274;9.754;2023-02-21T16:37:47;10.80;99.90
24772;DHT22;12870;52.274;9.754;2023-02-21T16:40:16;10.80;99.90
24772;DHT22;12870;52.274;9.754;2023-02-21T16:42:47;10.80;99.90
24772;DHT22;12870;52.274;9.754;2023-02-21T16:45:13;10.70;99.90
24772;DHT22;12870;52.274;9.754;2023-02-21T16:47:39;10.70;99.90
24772;DHT22;12870;52.274;9.754;2023-02-21T16:50:08;10.80;99.90
24772;DHT22;12870;52.274;9.754;2023-02-21T16:52:39;10.80;99.90
24772;DHT22;12870;52.274;9.754;2023-02-21T16:55:05;10.80;99.90
24772;DHT22;12870;52.274;9.754;2023-02-21T16:57:31;10.70;99.90
24772;DHT22;12870;52.274;9.754;2023-02-21T16:59:56;10.70;99.90
24772;DHT22;12870;52.274;9.754;2023-02-21T17:02:22;10.70;99.90
24772;DHT22;12870;52.274;9.754;2023-02-21T17:04:49;10.70;99.90
24772;DHT22;12870;52.274;9.754;2023-02-21T17:07:15;10.70;99.90
24772;DHT22;12870;52.274;9.754;2023-02-21T17:09:40;10.60;99.90
24772;DHT22;12870;52.274;9.754;2023-02-21T17:12:07;10.60;99.90
24772;DHT22;12870;52.274;9.754;2023-02-21T17:14:33;10.50;99.90
24772;DHT22;12870;52.274;9.754;2023-02-21T17:16:59;10.50;99.90
24772;DHT22;12870;52.274;9.754;2023-02-21T17:19:25;10.50;99.90
24772;DHT22;12870;52.274;9.754;2023-02-21T17:21:51;10.50;99.90
24772;DHT22;12870;52.274;9.754;2023-02-21T17:24:17;10.50;99.90
24772;DHT22;12870;52.274;9.754;2023-02-21T17:26:43;10.50;99.90
24772;DHT22;12870;52.274;9.754;2023-02-21T17:29:09;10.50;99.90
24772;DHT22;12870;52.274;9.754;2023-02-21T17:31:36;10.50;99.90
24772;DHT22;12870;52.274;9.754;2023-02-21T17:34:02;10.50;99.90
24772;DHT22;12870;52.274;9.754;2023-02-21T17:36:29;10.50;99.90
24772;DHT22;12870;52.274;9.754;2023-02-21T17:38:55;10.50;99.90
24772;DHT22;12870;52.274;9.754;2023-02-21T17:41:22;10.50;99.90
24772;DHT22;12870;52.274;9.754;2023-02-21T17:43:48;10.50;99.90
24772;DHT22;12870;52.274;9.754;2023-02-21T17:46:16;10.40;99.90
24772;DHT22;12870;52.274;9.754;2023-02-21T17:48:43;10.30;99.90
24772;DHT22;12870;52.274;9.754;2023-02-21T17:51:15;10.30;99.90
24772;DHT22;12870;52.274;9.754;2023-02-21T17:53:41;10.30;99.90
24772;DHT22;12870;52.274;9.754;2023-02-21T17:56:07;10.30;99.90
24772;DHT22;12870;52.274;9.754;2023-02-21T17:58:32;10.30;99.90
24772;DHT22;12870;52.274;9.754;2023-02-21T18:00:58;10.20;99.90
24772;DHT22;12870;52.274;9.754;2023-02-21T18:03:24;10.20;99.90
24772;DHT22;12870;52.274;9.754;2023-02-21T18:05:50;10.20;99.90
24772;DHT22;12870;52.274;9.754;2023-02-21T18:08:17;10.20;99.90
24772;DHT22;12870;52.274;9.754;2023-02-21T18:10:43;10.20;99.90
24772;DHT22;12870;52.274;9.754;2023-02-21T18:13:19;10.20;99.90
24772;DHT22;12870;52.274;9.754;2023-02-21T18:15:45;10.20;99.90
24772;DHT22;12870;52.274;9.754;2023-02-21T18:18:11;10.20;99.90
24772;DHT22;12870;52.274;9.754;2023-02-21T18:20:37;10.30;99.90
24772;DHT22;12870;52.274;9.754;2023-02-21T18:23:03;10.30;99.90
24772;DHT22;12870;52.274;9.754;2023-02-21T18:25:32;10.30;99.90
24772;DHT22;12870;52.274;9.754;2023-02-21T18:27:58;10.30;99.90
24772;DHT22;12870;52.274;9.754;2023-02-21T18:30:23;10.30;99.90
24772;DHT22;12870;52.274;9.754;2023-02-21T18:32:49;10.30;99.90
24772;DHT22;12870;52.274;9.754;2023-02-21T18:35:16;10.30;99.90
24772;DHT22;12870;52.274;9.754;2023-02-21T18:37:42;10.30;99.90
24772;DHT22;12870;52.274;9.754;2023-02-21T18:40:12;10.30;99.90
24772;DHT22;12870;52.274;9.754;2023-02-21T18:42:42;10.30;99.90
24772;DHT22;12870;52.274;9.754;2023-02-21T18:45:09;10.30;99.90
24772;DHT22;12870;52.274;9.754;2023-02-21T18:47:36;10.30;99.90
24772;DHT22;12870;52.274;9.754;2023-02-21T18:50:03;10.30;99.90
24772;DHT22;12870;52.274;9.754;2023-02-21T18:52:29;10.30;99.90
24772;DHT22;12870;52.274;9.754;2023-02-21T18:54:55;10.30;99.90
24772;DHT22;12870;52.274;9.754;2023-02-21T18:57:27;10.30;99.90
24772;DHT22;12870;52.274;9.754;2023-02-21T18:59:54;10.30;99.90
24772;DHT22;12870;52.274;9.754;2023-02-21T19:02:20;10.30;99.90